Latest Weather Observations for Parkes Airport

IDN60801

Issued at 11:22 pm EST Wednesday 12 August 2020 (issued every 10 minutes, with the page automatically refreshed every 10 minutes)

About weather observations | Map of weather stations | Latest weather observations for NSW | Other Formats
Station Details ID: 065068 Name: PARKES AIRPORT AWS Lat: -33.13 Lon: 148.24 Height: 323.3 m
Data from the previous 72 hours. | See also: Recent months at Parkes Airport
Date/Time
EST
Temp
°C
App
Temp
°C
Dew
Point
°C
Rel
Hum
%
Delta-T
°C
Wind Press
QNH
hPa
Press
MSL
hPa
Rain since
9am
mm
Dir  Spd
km/h
Gust
km/h
Spd
kts
Gust
kts
12/11:00pm 11.4 10.1 10.0 91 0.7 NE 7 9 4 5 1012.9 1013.3 0.4
12/10:30pm 11.8 10.1 10.0 89 0.9 NNE 9 13 5 7 1013.0 1013.4 0.4
12/10:00pm 12.0 9.6 10.1 88 1.0 N 13 17 7 9 1013.1 1013.5 0.4
12/09:30pm 10.8 9.4 9.6 92 0.6 N 7 11 4 6 1012.8 1013.2 0.4
12/09:00pm 11.0 9.2 9.6 91 0.7 NE 9 9 5 5 1012.5 1012.8 0.4
12/08:30pm 10.4 8.6 9.6 95 0.4 NE 9 9 5 5 1012.4 1012.7 0.4
12/08:00pm 9.3 7.2 8.1 92 0.6 ENE 9 11 5 6 1012.3 1012.6 0.4
12/07:30pm 10.5 8.6 8.9 90 0.8 NE 9 11 5 6 1012.3 1012.6 0.4
12/07:00pm 10.8 8.9 9.2 90 0.8 NE 9 11 5 6 1012.0 1012.3 0.4
12/06:30pm 11.7 9.6 9.6 87 1.1 NNE 11 11 6 6 1011.7 1012.0 0.4
12/06:00pm 12.3 9.8 9.7 84 1.3 N 13 15 7 8 1011.5 1011.8 0.4
12/05:30pm 13.9 11.6 10.5 80 1.8 N 13 17 7 9 1011.2 1011.5 0.4
12/05:00pm 14.7 13.0 11.1 79 1.9 N 11 13 6 7 1011.0 1011.3 0.4
12/04:30pm 16.9 14.8 11.2 69 3.1 NNE 13 19 7 10 1010.6 1011.0 0.4
12/04:00pm 17.4 14.9 11.0 66 3.5 N 15 22 8 12 1010.8 1011.1 0.4
12/03:30pm 16.0 13.3 10.3 69 3.1 N 15 22 8 12 1010.9 1011.2 0.4
12/03:00pm 16.5 13.3 9.9 65 3.5 N 17 26 9 14 1011.1 1011.4 0.4
12/02:30pm 16.8 13.2 10.0 64 3.6 NNE 19 26 10 14 1011.1 1011.4 0.4
12/02:00pm 15.9 13.0 9.8 67 3.2 NNE 15 20 8 11 1011.5 1011.8 0.4
12/01:30pm 16.1 13.6 9.8 66 3.3 N 13 17 7 9 1011.8 1012.1 0.4
12/01:00pm 16.1 13.4 10.2 68 3.2 NE 15 20 8 11 1012.1 1012.4 0.4
12/12:30pm 14.6 12.5 9.8 73 2.5 NNE 11 13 6 7 1012.8 1013.2 0.4
12/12:00pm 14.0 12.2 9.4 74 2.4 NNE 9 13 5 7 1013.6 1014.0 0.4
12/11:30am 13.8 11.6 9.5 75 2.2 NNE 11 15 6 8 1014.2 1014.5 0.4
12/11:00am 13.3 9.9 9.2 76 2.1 NNE 17 22 9 12 1014.7 1015.0 0.4
12/10:30am 12.3 8.6 9.3 82 1.5 NE 19 22 10 12 1015.2 1015.5 0.4
12/10:00am 11.2 8.6 9.5 89 0.9 NE 13 17 7 9 1015.8 1016.2 0.2
12/09:30am 10.5 7.5 9.1 91 0.7 NNE 15 19 8 10 1016.3 1016.7 0.2
12/09:00am 10.1 6.4 8.0 87 1.0 N 17 20 9 11 1016.7 1017.1 0.2
12/08:30am 11.2 7.1 7.7 79 1.7 NNE 19 26 10 14 1016.2 1016.6 0.0
12/08:00am 10.4 6.0 7.6 83 1.4 NNE 20 28 11 15 1015.9 1016.3 0.0
12/07:30am 9.8 6.2 6.9 82 1.4 NNE 15 20 8 11 1016.2 1016.6 0.0
12/07:00am 9.5 5.9 6.8 83 1.3 NNE 15 19 8 10 1015.7 1016.1 0.0
12/06:30am 9.5 6.2 6.6 82 1.4 NE 13 17 7 9 1015.6 1016.0 0.0
12/06:00am 9.4 5.4 6.5 82 1.4 NNE 17 19 9 10 1015.4 1015.8 0.0
12/05:30am 9.5 5.9 6.6 82 1.4 N 15 20 8 11 1015.4 1015.8 0.0
12/05:00am 8.9 5.6 6.5 85 1.1 NE 13 17 7 9 1014.9 1015.2 0.0
12/04:30am 8.5 5.6 6.3 86 1.0 NNE 11 15 6 8 1015.0 1015.3 0.0
12/04:00am 9.0 6.1 6.3 83 1.3 NNE 11 15 6 8 1015.2 1015.5 0.0
12/03:30am 9.5 6.2 6.6 82 1.4 NE 13 19 7 10 1015.2 1015.5 0.0
12/03:00am 9.4 7.0 6.8 84 1.2 NE 9 15 5 8 1015.5 1015.9 0.0
12/02:30am 8.8 6.4 6.8 87 0.9 N 9 13 5 7 1015.9 1016.3 0.0
12/02:00am 8.7 5.9 6.8 88 0.9 NNE 11 15 6 8 1015.8 1016.2 0.0
12/01:30am 8.4 5.6 6.9 90 0.7 N 11 13 6 7 1016.3 1016.7 0.0
12/01:00am 7.9 5.8 6.0 88 0.9 NNE 6 7 3 4 1016.1 1016.5 0.0
12/12:30am 8.4 6.2 6.2 86 1.0 NE 7 15 4 8 1015.9 1016.3 0.0
12/12:00am 8.1 6.0 6.6 90 0.7 NE 7 9 4 5 1016.5 1016.9 0.0
 
Date/Time
EST
Temp
°C
App
Temp
°C
Dew
Point
°C
Rel
Hum
%
Delta-T
°C
Wind Press
QNH
hPa
Press
MSL
hPa
Rain since
9am
mm
Dir  Spd
km/h
Gust
km/h
Spd
kts
Gust
kts
11/11:30pm 7.9 4.8 7.1 95 0.4 ENE 13 13 7 7 1016.5 1016.9 0.0
11/11:00pm 6.9 4.3 6.0 94 0.4 ENE 9 9 5 5 1017.1 1017.5 0.0
11/10:30pm 7.1 4.6 6.4 95 0.3 NE 9 9 5 5 1017.3 1017.6 0.0
11/10:00pm 6.9 4.7 6.0 94 0.4 ENE 7 11 4 6 1017.4 1017.7 0.0
11/09:30pm 7.1 5.0 6.0 93 0.5 ENE 6 6 3 3 1017.5 1017.8 0.0
11/09:00pm 7.4 4.9 6.5 94 0.4 ENE 9 11 5 6 1017.4 1017.7 0.0
11/08:30pm 6.9 3.8 5.4 90 0.7 N 11 13 6 7 1017.4 1017.7 0.0
11/08:00pm 7.9 5.2 5.5 85 1.1 NE 9 11 5 6 1017.3 1017.6 0.0
11/07:30pm 9.5 6.3 6.9 84 1.2 E 13 17 7 9 1016.6 1017.0 0.0
11/07:00pm 9.9 6.7 7.0 82 1.4 ENE 13 17 7 9 1016.9 1017.3 0.0
11/06:30pm 9.6 6.1 7.2 85 1.2 ESE 15 17 8 9 1017.1 1017.5 0.0
11/06:00pm 9.4 7.5 7.5 88 0.9 NE 7 17 4 9 1017.8 1018.1 0.0
11/05:30pm 10.3 9.7 7.2 81 1.5 CALM 0 6 0 3 1017.9 1018.2 0.0
11/05:00pm 11.6 9.5 8.1 79 1.7 NW 9 11 5 6 1017.9 1018.2 0.0
11/04:30pm 12.3 9.7 7.8 74 2.2 NNE 11 13 6 7 1017.4 1017.7 0.0
11/04:00pm 12.5 9.2 6.5 67 2.9 NNE 13 17 7 9 1017.3 1017.6 0.0
11/03:30pm 14.0 10.8 6.8 62 3.5 NNW 13 17 7 9 1017.4 1017.7 0.0
11/03:00pm 14.0 11.1 6.6 61 3.6 N 11 17 6 9 1017.4 1017.7 0.0
11/02:30pm 13.9 10.5 5.8 58 3.9 N 13 19 7 10 1017.9 1018.2 0.0
11/02:00pm 15.0 12.1 4.7 50 4.9 NNE 9 13 5 7 1018.1 1018.5 0.0
11/01:30pm 14.2 10.6 4.8 53 4.5 NNW 13 20 7 11 1018.7 1019.1 0.0
11/01:00pm 14.8 10.9 5.3 53 4.6 NNE 15 22 8 12 1019.0 1019.4 0.0
11/12:30pm 14.2 10.2 4.8 53 4.5 NNE 15 20 8 11 1019.5 1019.9 0.0
11/12:00pm 13.8 9.9 5.2 56 4.1 NNE 15 26 8 14 1020.0 1020.4 0.0
11/11:30am 13.7 9.0 5.1 56 4.1 NNE 19 26 10 14 1020.8 1021.2 0.0
11/11:00am 13.2 8.3 4.9 57 3.9 NNE 20 28 11 15 1021.0 1021.4 0.0
11/10:30am 12.8 7.1 5.0 59 3.7 NNE 24 32 13 17 1020.9 1021.3 0.0
11/10:00am 12.0 8.0 4.7 61 3.4 NNE 15 20 8 11 1021.4 1021.8 0.0
11/09:30am 11.6 7.2 4.8 63 3.2 NE 17 24 9 13 1021.5 1021.9 0.0
11/09:00am 10.5 6.5 4.9 68 2.6 ENE 15 19 8 10 1021.4 1021.8 0.0
11/08:30am 8.9 4.9 4.7 75 1.9 ENE 15 20 8 11 1021.4 1021.8 0.0
11/08:00am 7.5 2.7 4.5 81 1.3 ENE 19 22 10 12 1021.1 1021.5 0.0
11/07:53am 6.9 2.5 4.7 86 1.0 ENE 17 20 9 11 1021.2 1021.6 0.0
11/07:30am 1.9 -1.6 1.3 96 0.2 NNE 9 11 5 6 1021.1 1021.5 0.0
11/07:00am 0.9 -2.7 0.3 96 0.2 NNE 9 13 5 7 1020.6 1020.9 0.0
11/06:30am 0.7 -3.0 0.0 95 0.3 N 9 9 5 5 1020.2 1020.6 0.0
11/06:00am 0.8 -2.9 0.2 96 0.2 N 9 11 5 6 1020.1 1020.5 0.0
11/05:30am 0.9 -2.8 -0.2 92 0.4 NE 9 11 5 6 1019.9 1020.3 0.0
11/05:00am 1.5 -2.1 0.3 92 0.4 NE 9 11 5 6 1019.8 1020.2 0.0
11/04:30am 2.6 -0.3 1.6 93 0.4 NE 6 7 3 4 1019.9 1020.3 0.0
11/04:00am 2.0 0.1 0.8 92 0.5 CALM 0 0 0 0 1019.8 1020.2 0.0
11/03:30am 3.7 1.3 2.4 91 0.5 NE 4 7 2 4 1019.7 1020.1 0.0
11/03:00am 1.5 -2.1 0.9 96 0.2 E 9 13 5 7 1019.6 1020.0 0.0
11/02:30am 1.2 -2.0 0.6 96 0.2 NW 7 9 4 5 1020.0 1020.4 0.0
11/02:00am 1.2 -2.1 0.2 93 0.4 NW 7 9 4 5 1020.4 1020.8 0.0
11/01:30am 2.6 0.0 1.1 90 0.6 SSW 4 7 2 4 1020.8 1021.2 0.0
11/01:00am 3.4 0.6 1.8 89 0.6 SSW 6 7 3 4 1021.1 1021.5 0.0
11/12:30am 3.8 0.9 2.6 92 0.5 SW 7 11 4 6 1021.2 1021.6 0.0
11/12:00am 4.2 2.6 2.4 88 0.7 CALM 0 0 0 0 1021.0 1021.4 0.0
 
Date/Time
EST
Temp
°C
App
Temp
°C
Dew
Point
°C
Rel
Hum
%
Delta-T
°C
Wind Press
QNH
hPa
Press
MSL
hPa
Rain since
9am
mm
Dir  Spd
km/h
Gust
km/h
Spd
kts
Gust
kts
10/11:30pm 5.1 3.1 2.1 81 1.2 E 2 7 1 4 1021.1 1021.5 0.0
10/11:00pm 5.7 3.7 2.5 80 1.3 E 2 9 1 5 1020.8 1021.2 0.0
10/10:30pm 7.8 3.3 4.0 77 1.7 ESE 17 20 9 11 1020.8 1021.2 0.0
10/10:00pm 6.0 2.2 3.8 86 0.9 ESE 13 17 7 9 1020.9 1021.3 0.0
10/09:30pm 6.4 2.5 3.6 82 1.2 E 13 13 7 7 1020.9 1021.3 0.0
10/09:00pm 8.2 4.1 4.6 78 1.6 ESE 15 17 8 9 1020.8 1021.2 0.0
10/08:30pm 7.5 4.2 4.6 82 1.3 E 11 17 6 9 1020.4 1020.8 0.0
10/08:00pm 7.2 3.6 4.9 85 1.0 E 13 17 7 9 1020.0 1020.4 0.0
10/07:30pm 9.1 4.8 5.3 77 1.7 SE 17 22 9 12 1020.0 1020.4 0.0
10/07:00pm 10.2 6.1 6.0 75 2.0 SSE 17 20 9 11 1020.1 1020.5 0.0
10/06:30pm 9.6 5.4 5.8 77 1.8 SSE 17 20 9 11 1019.7 1020.1 0.0
10/06:00pm 10.5 5.9 5.7 72 2.2 SSE 19 24 10 13 1019.2 1019.6 0.0
10/05:30pm 11.2 7.5 6.3 72 2.3 S 15 19 8 10 1018.8 1019.2 0.0
10/05:00pm 12.9 9.6 6.5 65 3.1 S 13 17 7 9 1018.6 1019.0 0.0
10/04:30pm 13.9 9.9 6.5 61 3.6 S 17 22 9 12 1018.6 1019.0 0.0
10/04:00pm 14.1 9.8 7.2 63 3.4 SSE 19 24 10 13 1018.4 1018.8 0.0
10/03:30pm 14.9 11.7 7.0 59 3.9 SE 13 22 7 12 1018.2 1018.6 0.0
10/03:00pm 14.5 10.6 7.3 62 3.6 SE 17 22 9 12 1018.2 1018.6 0.0
10/02:30pm 14.1 9.7 7.6 65 3.3 SSE 20 30 11 16 1018.2 1018.6 0.0
10/02:00pm 13.7 8.4 6.8 63 3.4 SSE 24 33 13 18 1018.1 1018.5 0.0
10/01:30pm 14.0 9.2 7.3 64 3.3 SSE 22 32 12 17 1018.2 1018.6 0.0
10/01:00pm 14.7 10.0 7.7 63 3.5 S 22 33 12 18 1018.1 1018.5 0.0
10/12:30pm 14.1 8.6 7.6 65 3.3 S 26 37 14 20 1018.2 1018.6 0.0
10/12:00pm 14.0 9.5 6.8 62 3.5 SSE 20 32 11 17 1018.6 1019.0 0.0
10/11:30am 14.0 9.1 7.1 63 3.4 SSE 22 35 12 19 1018.6 1019.0 0.0
10/11:00am 13.3 8.0 6.6 64 3.3 SSE 24 30 13 16 1018.6 1019.0 0.0
10/10:30am 12.4 6.6 6.2 66 3.0 SSE 26 35 14 19 1018.5 1018.9 0.0
10/10:00am 12.0 7.0 6.3 68 2.7 SSE 22 32 12 17 1018.5 1018.9 0.0
10/09:30am 11.3 6.5 5.8 69 2.6 SSE 20 35 11 19 1018.5 1018.9 0.0
10/09:00am 10.7 5.7 6.3 74 2.1 S 22 35 12 19 1018.1 1018.5 4.6
10/08:30am 8.5 4.5 6.6 88 0.9 SSW 17 20 9 11 1017.8 1018.1 4.6
10/08:00am 7.3 3.1 5.8 90 0.7 SSW 17 24 9 13 1017.5 1017.8 4.6
10/07:30am 6.8 3.0 5.7 93 0.5 SSW 15 20 8 11 1017.1 1017.5 4.6
10/07:00am 6.7 1.9 5.7 93 0.5 SSW 20 26 11 14 1016.5 1016.9 4.6
10/06:30am 6.6 1.9 6.0 96 0.3 S 20 26 11 14 1016.4 1016.8 4.6
10/06:00am 6.5 1.4 5.9 96 0.3 SSW 22 28 12 15 1015.9 1016.3 4.6
10/05:30am 6.4 1.8 6.3 99 0.0 SSW 20 26 11 14 1015.5 1015.9 4.6
10/05:00am 6.5 2.4 6.4 99 0.0 SSW 17 22 9 12 1015.1 1015.4 4.6
10/04:30am 6.4 1.8 6.3 99 0.0 SSW 20 24 11 13 1014.9 1015.2 4.6
10/04:00am 5.8 1.6 5.7 99 0.0 SSW 17 22 9 12 1014.5 1014.8 4.6
10/03:30am 6.4 1.9 6.3 99 0.0 SSW 19 24 10 13 1013.8 1014.2 4.6
10/03:00am 5.8 2.0 5.7 99 0.0 SW 15 19 8 10 1013.5 1013.9 4.6
10/02:30am 5.2 2.0 5.1 99 0.0 SW 11 13 6 7 1013.3 1013.7 4.6
10/02:00am 5.9 2.9 5.8 99 0.0 SW 11 13 6 7 1013.2 1013.6 4.6
10/01:59am 5.9 2.9 5.8 99 0.0 SW 11 13 6 7 1013.2 1013.6 4.6
10/01:30am 6.9 2.9 6.8 99 0.0 SW 17 20 9 11 1013.2 1013.6 4.6
10/01:00am 7.5 3.7 7.4 99 0.0 SSW 17 20 9 11 1013.7 1014.1 4.6
10/12:30am 7.5 3.3 7.4 99 0.0 SSW 19 22 10 12 1013.9 1014.3 4.6
10/12:00am 7.5 3.1 7.4 99 0.0 SW 20 24 11 13 1013.9 1014.3 4.6
 
Date/Time
EST
Temp
°C
App
Temp
°C
Dew
Point
°C
Rel
Hum
%
Delta-T
°C
Wind Press
QNH
hPa
Press
MSL
hPa
Rain since
9am
mm
Dir  Spd
km/h
Gust
km/h
Spd
kts
Gust
kts
09/11:30pm 7.4 3.2 7.3 99 0.0 SW 19 24 10 13 1013.8 1014.2 4.6

Other formats

Comma delimited format used in spreadsheet applications
http://www.bom.gov.au/fwo/IDN60801/IDN60801.95717.axf

JavaScript Object Notation format (JSON) in row-major order
http://www.bom.gov.au/fwo/IDN60801/IDN60801.95717.json

Data quality

Most of these data are generated automatically and are frequently updated. Quality checks on data are not normally performed. It is possible for incorrect values to appear. Refer to information at About Latest Weather Observations and please check the disclaimer before using these data.